首页
METAR-TAF:

METAR-TAF

机场 :

基韋斯特, 佛罗里达州, 美国

纬度: 24-34-46N, 经度: 081-41-02W, 海拔: 1米

当前天气观测

该预报发布于38分钟前的20:53 UTC
风速12节,风向
温度 28°C
湿度 62%
气压 1018 hPa
能見度: 16.1公里
少量云层高于2500英尺

METAR: KNQX 172053Z 09012KT 10SM FEW025 28/20 A3006 RMK AO2 SLP177 T02780200 56013 $

时间: 17:31 (21:31 UTC)

预报

预报有效从17日的 15点(UTC)到 18日的 15点(UTC)
风速14节,风向,有时为22节阵风
能见度10公里或以上
散云层高于2500英尺

TAF: KNQX 1715/1815 10014G22KT 9999 SCT025 QNH2998INS TX28/1720Z TN23/1811Z FN20027

超过4000个机场的气象观测和天气预报(METAR&TAF报告)。

可查询的气象台以黄色和红色小点在地图上表示。

将鼠标移到小点上方,可查看气象台名称。

然后点击查看天气观测和预报。

如需切换地图:点击带黑十字的绿色按钮放大地图;点击带横线的绿色按钮缩小地图;或者点击绿色箭头查看邻近地区的地图。


METAR-TAF: